Time;durP1;ratioP1;P1;durP2;ratioP2;P2;SDS_P1;SDS_P2;PMS_P1;PMS_P2;Temp;Humidity;BMP_temperature;BMP_pressure;BME280_temperature;BME280_humidity;BME280_pressure;Samples;Min_cycle;Max_cycle;Signal;HPM_P1;HPM_P2
2022/11/24 00:00:52;;;;;;;7.75;7.03;;;2.70;99.90;;;;;;5092081;28;20031;-50
2022/11/24 00:03:18;;;;;;;8.10;6.88;;;2.80;99.90;;;;;;5093186;28;20032;-51
2022/11/24 00:05:43;;;;;;;11.15;6.75;;;2.80;99.90;;;;;;5092140;28;20162;-51
2022/11/24 00:08:10;;;;;;;8.18;6.60;;;2.80;99.90;;;;;;5092225;28;20456;-50
2022/11/24 00:10:36;;;;;;;7.40;6.68;;;2.80;99.90;;;;;;5091958;28;20028;-52
2022/11/24 00:13:02;;;;;;;6.75;6.05;;;2.90;99.90;;;;;;5091955;28;20039;-51
2022/11/24 00:15:27;;;;;;;5.60;5.10;;;2.80;99.90;;;;;;5092055;28;20031;-50
2022/11/24 00:17:53;;;;;;;6.28;5.68;;;2.80;99.90;;;;;;5091795;28;20028;-49
2022/11/24 00:20:19;;;;;;;6.28;5.35;;;2.80;99.90;;;;;;5091819;28;20406;-51
2022/11/24 00:22:44;;;;;;;5.65;4.57;;;2.80;99.90;;;;;;5091767;28;20035;-53
2022/11/24 00:25:10;;;;;;;5.22;4.75;;;2.70;99.90;;;;;;5091917;28;20032;-52
2022/11/24 00:27:35;;;;;;;5.10;4.60;;;2.70;99.90;;;;;;5091061;28;20036;-49
2022/11/24 00:30:04;;;;;;;7.03;5.57;;;2.80;99.90;;;;;;5091721;28;20051;-51
2022/11/24 00:32:30;;;;;;;5.28;4.80;;;2.80;99.90;;;;;;5093062;28;20016;-51
2022/11/24 00:34:55;;;;;;;7.63;4.28;;;2.80;99.90;;;;;;5081571;28;20021;-52
2022/11/24 00:37:21;;;;;;;5.50;4.97;;;2.70;99.90;;;;;;5071487;28;20032;-51
2022/11/24 00:39:47;;;;;;;5.20;4.68;;;2.70;99.90;;;;;;5071395;28;20035;-50
2022/11/24 00:42:13;;;;;;;4.07;3.78;;;2.60;99.90;;;;;;5071836;28;20020;-49
2022/11/24 00:44:39;;;;;;;4.72;4.32;;;2.70;99.90;;;;;;5071498;28;20029;-51
2022/11/24 00:47:05;;;;;;;4.15;3.85;;;2.60;99.90;;;;;;5086932;28;20642;-51
2022/11/24 00:49:30;;;;;;;4.55;4.20;;;2.50;99.90;;;;;;5091085;28;20043;-52
2022/11/24 00:51:56;;;;;;;4.63;4.22;;;2.60;99.90;;;;;;5091311;28;20032;-50
2022/11/24 00:54:22;;;;;;;7.93;4.40;;;2.60;99.90;;;;;;5091359;28;20068;-52
2022/11/24 00:56:48;;;;;;;4.32;4.00;;;2.50;99.90;;;;;;5091446;28;20103;-53
2022/11/24 00:59:14;;;;;;;4.88;4.47;;;2.60;99.90;;;;;;5089867;28;20028;-50
2022/11/24 01:01:41;;;;;;;4.57;4.20;;;2.60;99.90;;;;;;5089833;28;20016;-50
2022/11/24 01:04:07;;;;;;;4.57;4.18;;;2.50;99.90;;;;;;5091181;28;20032;-51
2022/11/24 01:06:34;;;;;;;5.25;4.15;;;2.50;99.90;;;;;;5091327;28;20524;-51
2022/11/24 01:09:00;;;;;;;5.30;4.80;;;2.50;99.90;;;;;;5090991;28;20081;-50
2022/11/24 01:14:19;;;;;;;4.63;4.22;;;2.50;99.90;;;;;;5090949;28;20085;-52
2022/11/24 01:16:45;;;;;;;5.05;3.90;;;2.60;99.90;;;;;;5090824;28;20349;-49
2022/11/24 01:19:11;;;;;;;5.95;3.97;;;2.60;99.90;;;;;;5090797;28;20059;-51
2022/11/24 01:21:36;;;;;;;4.35;4.05;;;2.60;99.90;;;;;;5091450;28;20046;-51
2022/11/24 01:24:02;;;;;;;4.63;4.00;;;2.70;99.90;;;;;;5091076;28;20449;-50
2022/11/24 01:26:27;;;;;;;6.10;4.47;;;2.70;99.90;;;;;;5091182;28;20421;-50
2022/11/24 01:28:55;;;;;;;4.72;4.30;;;2.70;99.90;;;;;;5091002;28;20039;-50
2022/11/24 01:31:21;;;;;;;4.20;3.90;;;2.70;99.90;;;;;;5090966;28;20028;-51
2022/11/24 01:33:47;;;;;;;4.70;4.30;;;2.80;99.90;;;;;;5089558;28;20024;-51
2022/11/24 01:36:12;;;;;;;6.00;4.30;;;2.80;99.90;;;;;;5091206;28;20332;-51
2022/11/24 01:38:38;;;;;;;4.80;4.40;;;2.80;99.90;;;;;;5090833;28;20475;-51
2022/11/24 01:41:05;;;;;;;4.95;4.45;;;2.80;99.90;;;;;;5095050;28;20073;-51
2022/11/24 01:43:33;;;;;;;6.10;5.60;;;2.80;99.90;;;;;;5095117;28;20107;-50
2022/11/24 01:46:13;;;;;;;4.22;3.92;;;2.80;99.90;;;;;;5094038;28;20024;-52
2022/11/24 01:48:45;;;;;;;4.45;4.10;;;2.80;99.90;;;;;;5094212;28;20493;-51
2022/11/24 01:51:33;;;;;;;3.95;3.65;;;2.80;99.90;;;;;;5079933;28;20032;-54
2022/11/24 01:54:08;;;;;;;4.82;4.43;;;2.90;99.90;;;;;;5094383;28;20054;-51
2022/11/24 01:56:35;;;;;;;4.85;4.43;;;2.90;99.90;;;;;;5094713;28;20072;-51
2022/11/24 01:59:04;;;;;;;4.55;3.90;;;2.80;99.90;;;;;;5093852;28;20045;-52
2022/11/24 02:01:30;;;;;;;4.47;3.78;;;2.90;99.90;;;;;;5093910;28;20032;-52
2022/11/24 02:03:57;;;;;;;4.25;3.72;;;2.90;99.90;;;;;;5093194;28;20035;-52
2022/11/24 02:06:29;;;;;;;4.63;4.22;;;3.00;99.90;;;;;;5093311;28;20036;-50
2022/11/24 02:09:03;;;;;;;3.70;3.40;;;3.10;99.90;;;;;;5092566;28;20103;-49
2022/11/24 02:11:33;;;;;;;4.30;3.92;;;3.20;99.90;;;;;;5093221;28;20197;-49
2022/11/24 02:13:59;;;;;;;4.20;3.83;;;3.20;99.90;;;;;;5093115;28;20077;-50
2022/11/24 02:16:25;;;;;;;6.70;4.43;;;3.20;99.90;;;;;;5093430;28;20043;-49
2022/11/24 02:18:52;;;;;;;5.57;4.47;;;3.30;99.90;;;;;;5093065;28;20439;-53
2022/11/24 02:21:18;;;;;;;4.95;4.55;;;3.30;99.90;;;;;;5093928;28;20497;-50
2022/11/24 02:23:52;;;;;;;5.03;4.55;;;3.30;99.90;;;;;;5092392;28;20024;-50
2022/11/24 02:26:35;;;;;;;5.32;4.82;;;3.40;99.90;;;;;;5093957;28;20032;-51
2022/11/24 02:29:01;;;;;;;4.75;4.35;;;3.50;99.90;;;;;;5093437;28;20020;-50
2022/11/24 02:31:27;;;;;;;5.90;5.40;;;3.50;99.90;;;;;;5092111;28;20035;-51
2022/11/24 02:33:54;;;;;;;5.05;4.55;;;3.50;99.90;;;;;;5093396;28;20025;-51
2022/11/24 02:36:20;;;;;;;5.93;5.13;;;3.60;99.90;;;;;;5093660;28;20032;-51
2022/11/24 02:38:45;;;;;;;6.63;5.22;;;3.60;99.90;;;;;;5091994;28;20355;-51
2022/11/24 02:41:16;;;;;;;5.82;5.03;;;3.70;99.90;;;;;;5093525;28;20039;-51
2022/11/24 02:43:47;;;;;;;6.70;4.70;;;3.80;99.90;;;;;;5093441;28;20016;-49
2022/11/24 02:46:13;;;;;;;5.85;5.10;;;3.90;99.90;;;;;;5092690;28;20020;-50
2022/11/24 02:48:38;;;;;;;5.38;4.45;;;3.90;99.90;;;;;;5093023;28;20031;-51
2022/11/24 02:51:04;;;;;;;8.02;4.78;;;4.00;99.90;;;;;;5091161;28;20031;-51
2022/11/24 02:53:30;;;;;;;5.30;4.60;;;4.10;99.90;;;;;;5093207;28;20036;-52
2022/11/24 02:55:56;;;;;;;7.50;4.40;;;4.40;99.90;;;;;;5093603;28;20016;-52
2022/11/24 02:58:21;;;;;;;7.28;4.55;;;4.60;99.90;;;;;;5093174;28;20109;-55
2022/11/24 03:00:47;;;;;;;5.78;4.50;;;4.70;99.90;;;;;;5092832;28;20024;-55
2022/11/24 03:03:13;;;;;;;9.35;4.50;;;4.80;99.90;;;;;;5091941;28;20035;-55
2022/11/24 03:05:39;;;;;;;10.60;5.25;;;4.90;99.90;;;;;;5093083;28;20039;-52
2022/11/24 03:08:05;;;;;;;14.55;5.03;;;5.10;99.90;;;;;;5092934;28;20470;-54
2022/11/24 03:10:31;;;;;;;7.15;4.65;;;5.20;99.90;;;;;;5092618;28;20067;-53
2022/11/24 03:12:57;;;;;;;13.93;4.82;;;5.30;99.90;;;;;;5093032;28;20503;-55
2022/11/24 03:15:23;;;;;;;5.70;4.18;;;5.40;99.90;;;;;;5092899;28;20024;-52
2022/11/24 03:17:49;;;;;;;10.05;5.03;;;5.40;99.90;;;;;;5093070;28;20032;-50
2022/11/24 03:20:15;;;;;;;15.80;5.43;;;5.40;99.90;;;;;;5091365;28;20067;-54
2022/11/24 03:22:41;;;;;;;8.63;4.07;;;5.50;99.90;;;;;;5092414;28;20032;-51
2022/11/24 03:25:07;;;;;;;5.63;4.22;;;5.50;99.90;;;;;;5092897;28;20089;-51
2022/11/24 03:27:32;;;;;;;15.90;5.57;;;5.60;99.90;;;;;;5080563;28;20028;-55
2022/11/24 03:29:58;;;;;;;10.85;3.80;;;5.70;99.90;;;;;;5084955;28;20028;-54
2022/11/24 03:32:24;;;;;;;7.70;3.83;;;5.70;99.90;;;;;;5092218;28;20051;-52
2022/11/24 03:34:50;;;;;;;12.63;5.07;;;5.70;99.90;;;;;;5092503;28;20032;-55
2022/11/24 03:37:16;;;;;;;12.02;4.15;;;5.60;99.90;;;;;;5092025;28;20039;-51
2022/11/24 03:39:41;;;;;;;12.50;3.80;;;5.60;99.90;;;;;;5090907;28;20038;-53
2022/11/24 03:42:07;;;;;;;16.02;5.03;;;5.60;99.90;;;;;;5092489;28;20430;-52
2022/11/24 03:44:33;;;;;;;11.77;3.95;;;5.60;99.90;;;;;;5092002;28;20071;-52
2022/11/24 03:46:58;;;;;;;11.57;4.03;;;5.60;99.90;;;;;;5091823;28;20419;-53
2022/11/24 03:49:24;;;;;;;9.75;4.10;;;5.60;99.90;;;;;;5091739;28;20406;-54
2022/11/24 03:51:49;;;;;;;5.85;3.30;;;5.60;99.90;;;;;;5091151;28;20032;-52
2022/11/24 03:54:15;;;;;;;12.98;3.58;;;5.70;99.90;;;;;;5092244;28;20515;-51
2022/11/24 03:56:41;;;;;;;11.00;3.60;;;5.70;99.90;;;;;;5092087;28;20431;-54
2022/11/24 03:59:07;;;;;;;14.30;6.50;;;5.70;99.90;;;;;;5092092;28;20069;-55
2022/11/24 04:01:33;;;;;;;11.85;3.47;;;5.70;99.90;;;;;;5091694;28;20523;-51
2022/11/24 04:03:58;;;;;;;6.90;3.97;;;5.70;99.90;;;;;;5091804;28;20076;-51
2022/11/24 04:06:24;;;;;;;14.75;3.92;;;5.60;99.90;;;;;;5091732;28;20035;-55
2022/11/24 04:08:50;;;;;;;12.10;3.88;;;5.60;99.90;;;;;;5091550;28;20031;-52
2022/11/24 04:14:04;;;;;;;13.23;3.60;;;5.60;99.90;;;;;;5071598;28;20036;-50
2022/11/24 04:16:30;;;;;;;15.45;5.50;;;5.60;99.90;;;;;;5091910;28;20020;-51
2022/11/24 04:18:56;;;;;;;9.93;2.85;;;5.70;99.90;;;;;;5090808;28;20044;-50
2022/11/24 04:21:21;;;;;;;11.13;3.13;;;5.80;99.90;;;;;;5091802;28;20028;-55
2022/11/24 04:23:47;;;;;;;6.00;2.97;;;5.70;99.90;;;;;;5091054;28;20032;-51
2022/11/24 04:26:13;;;;;;;11.18;3.20;;;5.80;99.90;;;;;;5091991;28;20035;-51
2022/11/24 04:28:38;;;;;;;5.55;3.03;;;5.80;99.90;;;;;;5091297;28;20016;-51
2022/11/24 04:31:05;;;;;;;13.88;3.63;;;5.80;99.90;;;;;;5090216;28;20055;-50
2022/11/24 04:33:31;;;;;;;13.40;6.90;;;5.80;99.90;;;;;;5092112;28;20478;-51
2022/11/24 04:35:57;;;;;;;29.38;8.95;;;5.70;99.90;;;;;;5091516;28;20032;-52
2022/11/24 04:38:22;;;;;;;31.70;15.98;;;5.60;99.90;;;;;;5091770;28;20027;-52
2022/11/24 04:40:48;;;;;;;9.57;3.47;;;5.60;99.90;;;;;;5090765;28;20055;-49
2022/11/24 04:43:16;;;;;;;12.27;4.57;;;5.60;99.90;;;;;;5090332;28;20044;-50
2022/11/24 04:45:42;;;;;;;11.77;2.80;;;5.60;99.90;;;;;;5090388;28;20027;-51
2022/11/24 04:48:07;;;;;;;11.93;5.45;;;5.50;99.90;;;;;;5091085;28;20469;-51
2022/11/24 04:50:33;;;;;;;5.45;3.10;;;5.60;99.90;;;;;;5091350;28;20025;-50
2022/11/24 04:52:58;;;;;;;5.30;2.65;;;5.60;99.90;;;;;;5091008;28;20043;-50
2022/11/24 04:55:24;;;;;;;11.07;3.53;;;5.60;99.90;;;;;;5083441;28;20078;-51
2022/11/24 04:57:50;;;;;;;11.20;2.75;;;5.70;99.90;;;;;;5091383;28;20475;-54
2022/11/24 05:00:16;;;;;;;6.60;2.78;;;5.70;99.90;;;;;;5091143;28;20020;-49
2022/11/24 05:02:41;;;;;;;6.38;2.88;;;5.70;99.90;;;;;;5091112;28;20039;-51
2022/11/24 05:05:07;;;;;;;14.13;3.90;;;5.70;99.90;;;;;;5091398;28;20020;-50
2022/11/24 05:07:33;;;;;;;12.60;2.65;;;5.80;99.90;;;;;;5091405;28;20432;-52
2022/11/24 05:12:43;;;;;;;6.32;2.67;;;5.80;99.90;;;;;;5091338;28;20058;-51
2022/11/24 05:15:09;;;;;;;7.85;2.80;;;5.70;99.90;;;;;;5093780;28;20024;-51
2022/11/24 05:17:37;;;;;;;10.25;3.25;;;5.80;99.90;;;;;;5094978;28;20078;-52
2022/11/24 05:20:04;;;;;;;12.07;4.35;;;5.80;99.90;;;;;;5094905;28;20036;-49
2022/11/24 05:22:30;;;;;;;9.32;2.90;;;5.80;99.90;;;;;;5095335;28;20024;-51
2022/11/24 05:24:57;;;;;;;7.10;2.65;;;5.80;99.90;;;;;;5094851;28;20024;-50
2022/11/24 05:27:23;;;;;;;6.55;3.35;;;5.80;99.90;;;;;;5095060;28;20502;-51
2022/11/24 05:29:48;;;;;;;16.58;3.10;;;5.80;99.90;;;;;;5094744;28;20043;-53
2022/11/24 05:32:14;;;;;;;10.43;2.90;;;5.80;99.90;;;;;;5094961;28;20028;-50
2022/11/24 05:34:40;;;;;;;7.43;3.00;;;5.70;99.90;;;;;;5094550;28;20058;-49
2022/11/24 05:37:07;;;;;;;15.07;3.22;;;5.80;99.90;;;;;;5094924;28;20025;-53
2022/11/24 05:39:34;;;;;;;8.73;3.25;;;5.80;99.90;;;;;;5094802;28;20020;-50
2022/11/24 05:44:50;;;;;;;6.15;3.05;;;6.00;99.90;;;;;;5094845;28;20081;-50
2022/11/24 05:47:16;;;;;;;9.18;3.03;;;6.00;99.90;;;;;;5094724;28;20051;-50
2022/11/24 05:49:42;;;;;;;13.80;3.70;;;6.00;99.90;;;;;;5094347;28;20461;-51
2022/11/24 05:52:08;;;;;;;4.75;3.40;;;6.00;99.90;;;;;;5094433;28;20022;-52
2022/11/24 05:54:34;;;;;;;10.07;3.55;;;6.00;99.90;;;;;;5094949;28;20585;-49
2022/11/24 05:56:59;;;;;;;5.03;2.83;;;6.00;99.90;;;;;;5094427;28;20028;-51
2022/11/24 05:59:25;;;;;;;8.95;3.38;;;6.00;99.90;;;;;;5094711;28;20016;-53
2022/11/24 06:01:50;;;;;;;4.30;2.45;;;5.90;99.90;;;;;;5094152;28;20032;-50
2022/11/24 06:04:16;;;;;;;12.57;2.88;;;5.90;99.90;;;;;;5094219;28;20028;-50
2022/11/24 06:06:42;;;;;;;7.43;2.88;;;5.90;99.90;;;;;;5094145;28;20032;-53
2022/11/24 06:09:07;;;;;;;4.93;2.13;;;5.80;99.90;;;;;;5094158;28;20518;-53
2022/11/24 06:11:33;;;;;;;5.63;2.35;;;5.80;99.90;;;;;;5093790;28;20089;-52
2022/11/24 06:13:59;;;;;;;3.22;2.08;;;5.70;99.90;;;;;;5092595;28;20491;-51
2022/11/24 06:16:25;;;;;;;6.07;2.83;;;5.70;99.90;;;;;;5094081;28;20028;-51
2022/11/24 06:18:50;;;;;;;5.93;3.08;;;5.80;99.90;;;;;;5093325;28;20044;-53
2022/11/24 06:21:16;;;;;;;7.78;2.30;;;5.80;99.90;;;;;;5092550;28;20018;-54
2022/11/24 06:23:42;;;;;;;3.47;2.08;;;5.90;99.90;;;;;;5085920;28;20111;-55
2022/11/24 06:26:08;;;;;;;4.78;2.95;;;5.90;99.90;;;;;;5092040;28;20059;-53
2022/11/24 06:28:34;;;;;;;6.97;2.65;;;5.90;99.90;;;;;;5093622;28;20030;-53
2022/11/24 06:31:01;;;;;;;8.65;2.88;;;5.80;99.90;;;;;;5093502;28;20107;-54
2022/11/24 06:33:33;;;;;;;6.35;4.00;;;5.90;99.90;;;;;;5092783;28;20494;-53
2022/11/24 06:36:01;;;;;;;9.32;3.38;;;5.90;99.90;;;;;;5092312;28;20024;-51
2022/11/24 06:38:27;;;;;;;9.63;3.78;;;5.90;99.90;;;;;;5092934;28;20020;-53
2022/11/24 06:41:00;;;;;;;7.10;4.05;;;6.00;99.90;;;;;;5092172;28;20391;-49
2022/11/24 06:43:27;;;;;;;11.85;3.75;;;6.00;99.90;;;;;;5091255;28;20103;-51
2022/11/24 06:45:53;;;;;;;6.68;2.97;;;6.00;99.90;;;;;;5091383;28;20031;-50
2022/11/24 06:48:19;;;;;;;8.13;2.55;;;5.90;99.90;;;;;;5092071;28;20032;-50
2022/11/24 06:50:44;;;;;;;10.98;3.30;;;5.90;99.90;;;;;;5092342;28;20121;-51
2022/11/24 06:53:11;;;;;;;7.85;2.90;;;5.90;99.90;;;;;;5092937;28;20024;-53
2022/11/24 06:55:38;;;;;;;7.88;3.17;;;5.90;99.90;;;;;;5092914;28;20471;-52
2022/11/24 06:58:03;;;;;;;7.82;3.30;;;5.90;99.90;;;;;;5094061;28;20066;-53
2022/11/24 07:00:31;;;;;;;4.93;2.97;;;5.90;99.90;;;;;;5092622;28;20046;-53
2022/11/24 07:02:58;;;;;;;8.95;3.00;;;6.00;99.90;;;;;;5093116;28;20028;-51
2022/11/24 07:05:23;;;;;;;11.05;5.97;;;6.00;99.90;;;;;;5091762;28;20043;-51
2022/11/24 07:07:49;;;;;;;10.43;3.10;;;6.10;99.90;;;;;;5093040;28;20036;-56
2022/11/24 07:10:15;;;;;;;16.63;9.38;;;6.20;99.90;;;;;;5092726;28;20028;-51
2022/11/24 07:12:41;;;;;;;18.23;6.25;;;6.20;99.90;;;;;;5092653;28;20073;-51
2022/11/24 07:15:07;;;;;;;14.27;2.90;;;6.20;99.90;;;;;;5093008;28;20367;-51
2022/11/24 07:17:39;;;;;;;7.22;2.58;;;6.20;99.90;;;;;;5093104;28;20019;-53
2022/11/24 07:20:06;;;;;;;3.63;2.30;;;6.20;99.90;;;;;;5091376;28;20044;-51
2022/11/24 07:22:33;;;;;;;32.08;18.95;;;6.20;99.90;;;;;;5092844;28;20050;-51
2022/11/24 07:24:58;;;;;;;11.98;5.85;;;6.20;99.90;;;;;;5092768;28;20032;-51
2022/11/24 07:27:25;;;;;;;6.07;3.10;;;6.20;99.90;;;;;;5092653;28;20044;-53
2022/11/24 07:29:51;;;;;;;41.85;15.43;;;6.40;99.90;;;;;;5090809;28;20036;-54
2022/11/24 07:32:18;;;;;;;16.27;5.32;;;6.40;99.90;;;;;;5092364;28;20093;-52
2022/11/24 07:34:43;;;;;;;8.85;3.88;;;6.40;99.90;;;;;;5092520;28;21329;-53
2022/11/24 07:37:09;;;;;;;9.18;2.90;;;6.40;99.90;;;;;;5092309;28;20051;-53
2022/11/24 07:39:34;;;;;;;9.63;3.33;;;6.50;99.90;;;;;;5092359;28;20032;-53
2022/11/24 07:42:00;;;;;;;7.93;3.92;;;6.50;99.90;;;;;;5092175;28;20035;-51
2022/11/24 07:44:26;;;;;;;9.50;2.90;;;6.50;99.90;;;;;;5091193;28;20027;-53
2022/11/24 07:46:52;;;;;;;10.77;3.00;;;6.50;99.90;;;;;;5090968;28;20028;-53
2022/11/24 07:49:18;;;;;;;10.23;3.67;;;6.60;99.90;;;;;;5092558;28;20032;-55
2022/11/24 07:51:44;;;;;;;6.85;2.78;;;6.70;99.90;;;;;;5092093;28;20111;-52
2022/11/24 07:54:10;;;;;;;8.00;2.88;;;6.80;99.90;;;;;;5092372;28;20028;-52
2022/11/24 07:56:36;;;;;;;9.38;3.05;;;6.90;99.90;;;;;;5092323;28;20028;-50
2022/11/24 07:59:02;;;;;;;11.10;3.15;;;6.80;99.90;;;;;;5092215;28;20020;-50
2022/11/24 08:01:27;;;;;;;7.10;2.78;;;6.90;99.90;;;;;;5092366;28;20506;-52
2022/11/24 08:03:53;;;;;;;5.88;2.75;;;6.90;99.90;;;;;;5091740;28;20032;-53
2022/11/24 08:06:19;;;;;;;5.93;3.33;;;6.90;99.90;;;;;;5090734;28;20024;-53
2022/11/24 08:08:45;;;;;;;15.55;3.58;;;7.00;99.90;;;;;;5092022;28;20039;-52
2022/11/24 08:11:13;;;;;;;13.88;3.22;;;7.00;99.90;;;;;;5091904;28;20048;-51
2022/11/24 08:13:39;;;;;;;14.50;2.80;;;7.00;99.90;;;;;;5091538;28;20081;-54
2022/11/24 08:16:14;;;;;;;10.80;2.90;;;7.00;99.90;;;;;;5092628;28;20469;-52
2022/11/24 08:18:40;;;;;;;16.65;4.05;;;7.00;99.90;;;;;;5090739;28;20024;-53
2022/11/24 08:21:07;;;;;;;9.50;3.45;;;7.10;99.90;;;;;;5091518;28;20032;-50
2022/11/24 08:23:33;;;;;;;12.75;3.33;;;7.10;99.90;;;;;;5091710;28;20027;-50
2022/11/24 08:26:08;;;;;;;15.88;5.05;;;7.10;99.90;;;;;;5091736;28;20108;-56
2022/11/24 08:28:34;;;;;;;6.20;3.05;;;7.10;99.90;;;;;;5091936;28;20035;-53
2022/11/24 08:31:05;;;;;;;11.05;2.95;;;7.10;99.90;;;;;;5090290;28;20024;-50
2022/11/24 08:33:31;;;;;;;13.98;4.63;;;7.20;99.90;;;;;;5090636;28;20483;-49
2022/11/24 08:36:06;;;;;;;9.52;3.28;;;7.30;99.90;;;;;;5091380;28;20036;-51
2022/11/24 08:38:32;;;;;;;9.65;3.17;;;7.40;99.90;;;;;;5091762;28;20054;-52
2022/11/24 08:41:02;;;;;;;4.78;3.10;;;7.40;99.90;;;;;;5091081;28;20039;-50
2022/11/24 08:43:29;;;;;;;13.57;2.88;;;7.30;99.90;;;;;;5091734;28;20043;-51
2022/11/24 08:45:59;;;;;;;5.63;3.40;;;7.30;99.90;;;;;;5091400;28;20107;-51
2022/11/24 08:48:24;;;;;;;7.25;2.65;;;7.30;99.90;;;;;;5090774;28;20059;-52
2022/11/24 08:50:50;;;;;;;7.90;3.03;;;7.30;99.90;;;;;;5091109;28;20121;-52
2022/11/24 08:53:16;;;;;;;10.10;3.60;;;7.30;99.90;;;;;;5091576;28;20035;-51
2022/11/24 08:55:41;;;;;;;13.85;3.80;;;7.30;99.90;;;;;;5091168;28;20039;-52
2022/11/24 08:58:07;;;;;;;12.43;3.05;;;7.40;99.90;;;;;;5091319;28;20020;-51
2022/11/24 09:00:33;;;;;;;6.88;2.60;;;7.50;99.90;;;;;;5091020;28;20052;-53
2022/11/24 09:02:58;;;;;;;9.48;2.70;;;7.70;99.90;;;;;;5089990;28;20035;-53
2022/11/24 09:05:24;;;;;;;13.77;7.60;;;7.70;99.90;;;;;;5091138;28;20025;-55
2022/11/24 09:07:50;;;;;;;13.60;4.18;;;7.60;99.90;;;;;;5091277;28;20035;-54
2022/11/24 09:10:16;;;;;;;14.30;4.38;;;7.70;99.90;;;;;;5091038;28;20032;-51
2022/11/24 09:12:46;;;;;;;12.95;3.63;;;7.70;99.90;;;;;;5089821;28;20028;-53
2022/11/24 09:15:12;;;;;;;18.65;3.83;;;7.80;99.90;;;;;;5091066;28;20021;-52
2022/11/24 09:17:38;;;;;;;15.23;3.97;;;7.90;99.90;;;;;;5090197;28;20036;-53
2022/11/24 09:20:04;;;;;;;10.35;6.30;;;8.00;99.90;;;;;;5091044;28;20051;-52
2022/11/24 09:22:30;;;;;;;15.48;6.75;;;7.90;99.90;;;;;;5091197;28;20032;-52
2022/11/24 09:24:56;;;;;;;25.40;9.35;;;7.90;99.90;;;;;;5090983;28;20108;-51
2022/11/24 09:27:22;;;;;;;29.33;6.68;;;8.00;99.90;;;;;;5091264;28;20507;-55
2022/11/24 09:29:48;;;;;;;12.38;3.47;;;8.10;99.90;;;;;;5090707;28;20036;-50
2022/11/24 09:32:14;;;;;;;61.50;23.55;;;8.10;99.90;;;;;;5091221;28;20061;-51
2022/11/24 09:34:39;;;;;;;37.28;14.32;;;8.20;99.90;;;;;;5090919;28;20028;-50
2022/11/24 09:37:05;;;;;;;21.55;8.52;;;8.10;99.90;;;;;;5091086;28;20031;-54
2022/11/24 09:39:30;;;;;;;12.27;3.47;;;8.20;99.90;;;;;;5090684;28;20012;-52
2022/11/24 09:42:35;;;;;;;17.17;7.90;;;8.30;99.90;;;;;;5090959;28;20036;-51
2022/11/24 09:45:06;;;;;;;;;;;8.20;99.90;;;;;;5069377;28;20120;-53
2022/11/24 09:48:07;;;;;;;17.40;7.72;;;8.40;99.90;;;;;;5091043;28;19904;-52
2022/11/24 09:50:35;;;;;;;13.93;7.72;;;8.40;99.90;;;;;;5090869;28;20397;-54
2022/11/24 09:53:14;;;;;;;11.23;3.75;;;8.30;99.90;;;;;;5090827;28;20581;-49
2022/11/24 09:55:43;;;;;;;10.10;4.40;;;8.40;99.90;;;;;;5090758;28;20029;-53
2022/11/24 09:58:20;;;;;;;10.77;4.65;;;8.40;99.90;;;;;;5090666;28;20364;-50
2022/11/24 10:00:49;;;;;;;9.50;4.07;;;8.40;99.90;;;;;;5092104;28;20029;-53
2022/11/24 10:03:45;;;;;;;13.30;4.05;;;8.60;99.90;;;;;;5094683;28;20031;-55
2022/11/24 10:06:25;;;;;;;21.73;6.70;;;8.70;99.90;;;;;;5094084;28;20032;-54
2022/11/24 10:09:21;;;;;;;18.70;7.25;;;9.00;99.90;;;;;;5094300;28;20035;-52
2022/11/24 10:12:06;;;;;;;10.77;3.78;;;9.50;99.90;;;;;;5093999;28;20093;-51
2022/11/24 10:14:48;;;;;;;8.65;3.08;;;9.60;99.90;;;;;;5077959;28;20016;-54
2022/11/24 10:17:26;;;;;;;17.75;5.40;;;10.20;99.90;;;;;;5094138;28;20070;-54
2022/11/24 10:20:19;;;;;;;24.10;6.35;;;10.30;99.90;;;;;;5093671;28;20048;-52
2022/11/24 10:23:03;;;;;;;19.27;7.03;;;9.90;99.90;;;;;;5094150;28;20421;-51
2022/11/24 10:25:56;;;;;;;34.88;9.63;;;9.70;99.90;;;;;;5093971;28;20320;-51
2022/11/24 10:28:34;;;;;;;14.48;3.90;;;9.80;99.90;;;;;;5092893;28;20531;-52
2022/11/24 10:31:23;;;;;;;14.32;2.88;;;9.80;99.90;;;;;;5093679;28;20395;-53
2022/11/24 10:33:49;;;;;;;8.27;3.13;;;10.00;99.90;;;;;;5093376;28;20032;-54
2022/11/24 10:37:01;;;;;;;10.63;3.45;;;10.20;99.90;;;;;;5093412;28;20062;-54
2022/11/24 10:39:49;;;;;;;16.90;3.42;;;10.40;99.90;;;;;;5088756;28;20135;-54
2022/11/24 10:42:27;;;;;;;8.40;2.70;;;10.00;99.90;;;;;;5092356;28;20410;-52
2022/11/24 10:45:21;;;;;;;10.48;3.40;;;10.10;99.90;;;;;;5088463;28;20031;-51
2022/11/24 10:47:48;;;;;;;13.10;4.63;;;9.90;99.90;;;;;;5081315;28;20028;-54
2022/11/24 10:50:22;;;;;;;11.20;4.35;;;9.70;99.90;;;;;;5092009;28;20616;-55
2022/11/24 10:53:13;;;;;;;13.98;4.22;;;9.60;99.90;;;;;;5091655;28;20558;-53
2022/11/24 10:55:54;;;;;;;13.23;3.63;;;9.50;99.90;;;;;;5093069;28;20384;-52
2022/11/24 10:58:22;;;;;;;10.95;4.25;;;9.20;99.90;;;;;;5093069;28;20486;-55
2022/11/24 11:00:48;;;;;;;17.42;4.65;;;9.20;99.90;;;;;;5091872;28;20032;-56
2022/11/24 11:03:20;;;;;;;15.02;3.97;;;9.20;99.90;;;;;;5092565;28;20070;-53
2022/11/24 11:05:59;;;;;;;17.55;3.58;;;9.40;99.90;;;;;;5092214;28;20036;-50
2022/11/24 11:08:29;;;;;;;12.85;3.28;;;9.40;99.90;;;;;;5092146;28;20032;-54
2022/11/24 11:11:17;;;;;;;9.02;2.90;;;9.50;99.90;;;;;;5091852;28;20089;-57
2022/11/24 11:14:00;;;;;;;15.20;7.25;;;9.50;99.90;;;;;;5071824;28;20135;-54
2022/11/24 11:16:38;;;;;;;17.17;3.10;;;9.60;99.90;;;;;;5091965;28;20032;-53
2022/11/24 11:19:24;;;;;;;8.45;2.75;;;9.60;99.90;;;;;;5092749;28;20066;-57
2022/11/24 11:21:59;;;;;;;13.18;4.30;;;9.80;99.90;;;;;;5092554;28;20028;-52
2022/11/24 11:24:27;;;;;;;10.05;3.17;;;9.80;99.90;;;;;;5092712;28;20031;-52
2022/11/24 11:27:05;;;;;;;233.52;76.78;;;9.80;99.90;;;;;;5092848;28;20487;-55
2022/11/24 11:29:31;;;;;;;12.35;3.20;;;9.60;99.90;;;;;;5092620;28;20670;-52
2022/11/24 11:32:16;;;;;;;12.60;4.40;;;9.70;99.90;;;;;;5091020;28;20028;-54
2022/11/24 11:34:42;;;;;;;11.77;3.72;;;9.60;99.90;;;;;;5092315;28;20024;-54
2022/11/24 11:37:11;;;;;;;12.52;3.55;;;9.50;99.90;;;;;;5092284;28;20023;-53
2022/11/24 11:39:46;;;;;;;12.07;4.20;;;9.50;99.90;;;;;;5092670;28;20607;-55
2022/11/24 11:42:18;;;;;;;16.27;3.33;;;9.50;99.90;;;;;;5092370;28;20047;-55
2022/11/24 11:45:07;;;;;;;21.38;4.38;;;9.50;99.90;;;;;;5092137;28;20024;-55
2022/11/24 11:47:46;;;;;;;14.27;4.78;;;9.60;99.90;;;;;;5080737;28;20046;-55
2022/11/24 11:50:14;;;;;;;16.27;5.13;;;9.70;99.90;;;;;;5092086;28;20028;-54
2022/11/24 11:52:49;;;;;;;29.90;6.55;;;9.80;99.90;;;;;;5091964;28;20182;-52
2022/11/24 11:55:30;;;;;;;22.08;8.73;;;9.70;99.90;;;;;;5092257;28;20103;-52
2022/11/24 11:58:36;;;;;;;26.80;10.70;;;9.70;99.90;;;;;;5092169;28;20459;-54
2022/11/24 12:01:27;;;;;;;11.95;5.10;;;9.70;99.90;;;;;;5091725;28;20368;-54
2022/11/24 12:04:10;;;;;;;12.90;4.00;;;9.80;99.90;;;;;;5092113;28;20034;-55
2022/11/24 12:07:05;;;;;;;6.00;2.83;;;9.80;99.90;;;;;;5091004;28;20027;-52
2022/11/24 12:10:03;;;;;;;10.48;3.80;;;10.00;99.90;;;;;;5091419;28;20150;-55
2022/11/24 12:12:53;;;;;;;14.98;3.35;;;10.00;99.90;;;;;;5071654;28;20047;-51
2022/11/24 12:15:24;;;;;;;9.80;2.90;;;10.10;99.90;;;;;;5091695;28;20356;-54
2022/11/24 12:18:17;;;;;;;8.02;2.88;;;9.80;99.90;;;;;;5091778;28;20028;-53
2022/11/24 12:20:52;;;;;;;13.45;3.53;;;9.80;99.90;;;;;;5087117;28;20044;-54
2022/11/24 12:23:48;;;;;;;13.73;3.53;;;9.80;99.90;;;;;;5091902;28;20478;-54
2022/11/24 12:26:42;;;;;;;9.32;3.53;;;9.70;99.90;;;;;;5091526;28;20023;-54
2022/11/24 12:29:26;;;;;;;;;;;9.70;99.90;;;;;;5089530;28;20487;-51
2022/11/24 12:32:01;;;;;;;10.07;3.20;;;9.60;99.90;;;;;;5091318;28;19908;-52
2022/11/24 12:34:59;;;;;;;13.15;3.35;;;9.50;99.90;;;;;;5091542;28;20024;-55
2022/11/24 12:37:37;;;;;;;8.70;3.28;;;9.60;99.90;;;;;;5071709;28;20387;-53
2022/11/24 12:40:36;;;;;;;14.85;4.03;;;9.50;99.90;;;;;;5091390;28;20012;-51
2022/11/24 12:43:34;;;;;;;17.70;4.93;;;9.70;99.90;;;;;;5091598;28;20028;-53
2022/11/24 12:46:22;;;;;;;11.10;2.63;;;9.90;99.90;;;;;;5091235;28;20025;-52
2022/11/24 12:49:08;;;;;;;15.55;6.97;;;10.20;99.90;;;;;;5091487;28;20040;-55
2022/11/24 12:51:47;;;;;;;8.88;3.10;;;10.20;99.90;;;;;;5091317;28;20020;-55
2022/11/24 12:54:17;;;;;;;12.10;4.97;;;10.20;99.90;;;;;;5091354;28;20028;-53
2022/11/24 12:56:48;;;;;;;21.98;9.60;;;10.10;99.90;;;;;;5091148;28;20081;-53
2022/11/24 12:59:37;;;;;;;14.95;3.08;;;10.00;99.90;;;;;;5091044;28;20095;-53
2022/11/24 13:02:02;;;;;;;10.48;2.53;;;10.10;99.90;;;;;;5091104;28;20493;-54
2022/11/24 13:04:43;;;;;;;9.32;3.58;;;10.50;99.90;;;;;;5091367;28;20059;-51
2022/11/24 13:07:25;;;;;;;9.25;2.58;;;10.90;99.90;;;;;;5091478;28;20502;-52
2022/11/24 13:10:23;;;;;;;16.50;6.63;;;11.20;99.90;;;;;;5091142;28;20095;-52
2022/11/24 13:13:04;;;;;;;7.78;3.90;;;10.60;99.90;;;;;;5036402;28;20195;-54
2022/11/24 13:15:32;;;;;;;11.48;4.82;;;10.30;99.90;;;;;;5057847;28;20390;-52
2022/11/24 13:17:58;;;;;;;12.63;2.90;;;10.20;99.90;;;;;;5089965;28;20447;-52
2022/11/24 13:20:37;;;;;;;15.90;4.28;;;10.10;99.90;;;;;;5090775;28;20121;-52